Etusivu
METAR-TAF:

METAR-TAF

Lentoasemat :

Tétouan, Marokko

Leveyspiiri: 35-35N, Pituuspiiri: 005-20W, korkeus merenpinnasta: 10 m

Tämänhetkinen sää

Tämä raportti tehtiin 1 tunti ja 17 minuuttia sitten, kello 14.00 UTC
Tuuli 15 kn lännestä, vaihdellen lounaan ja lännen/luoteen välillä
Lämpötila 17°C
Kosteus 77%
Ilmanpaine 1023 hPa
Näkyvyys 10 km tai enemmän
Hajonneita pilviä 2000 ft:n korkeudessa

METAR: GMTN 131400Z 27015KT 230V300 9999 BKN020 17/13 Q1023 NOSIG

Aika: 16:17 (15:17 UTC)


TAF: puuttuu

Säähavainnot ja -ennusteet yli 4000 lentoasemalta (METAR- ja TAF-raportit).

Käytössä olevat sääasemat on merkitty karttaan keltaisilla ja punaisilla pisteillä.

Aseta hiiri pisteen päälle nähdäksesi sääaseman nimen.

Klikkaa sitten nähdäksesi säähavainnot ja -ennusteet.

Kartan vaihtaminen: klikkaa mustalla rastilla varustettuja vihreitä pisteitä, niin voit zoomata sisään; viivalla varustettua vihreää pistettä, niin voit zoomata ulos tai vihreitä nuolia, niin pääset viereisille kartoille.


METAR-TAF: